createdAt,value
2023-07-25T00:00:50.283Z,74.25
2023-07-25T00:03:27.197Z,74.28
2023-07-25T00:05:55.266Z,74.38
2023-07-25T00:08:23.450Z,74.44
2023-07-25T00:10:51.591Z,74.48
2023-07-25T00:13:20.747Z,74.49
2023-07-25T00:15:48.900Z,74.54
2023-07-25T00:18:17.175Z,74.57
2023-07-25T00:20:45.258Z,74.64
2023-07-25T00:23:13.432Z,74.71
2023-07-25T00:25:41.637Z,74.76
2023-07-25T00:28:09.764Z,74.85
2023-07-25T00:30:37.941Z,74.87
2023-07-25T00:33:06.703Z,74.91
2023-07-25T00:35:34.940Z,74.88
2023-07-25T00:38:06.038Z,74.95
2023-07-25T00:40:39.007Z,74.97
2023-07-25T00:43:07.169Z,74.91
2023-07-25T00:45:35.471Z,74.95
2023-07-25T00:48:04.571Z,75.00
2023-07-25T00:50:32.939Z,74.98
2023-07-25T00:53:02.838Z,75.07
2023-07-25T00:55:31.210Z,75.08
2023-07-25T00:57:59.502Z,75.13
2023-07-25T01:00:27.850Z,75.13
2023-07-25T01:02:56.173Z,75.05
2023-07-25T01:05:25.908Z,75.01
2023-07-25T01:07:54.137Z,75.06
2023-07-25T01:10:22.223Z,75.03
2023-07-25T01:12:50.454Z,75.14
2023-07-25T01:15:18.685Z,75.16
2023-07-25T01:17:46.881Z,75.23
2023-07-25T01:20:15.596Z,75.23
2023-07-25T01:22:46.240Z,75.23
2023-07-25T01:25:15.201Z,75.26
2023-07-25T01:27:43.491Z,75.28
2023-07-25T01:30:11.869Z,75.36
2023-07-25T01:32:40.064Z,75.40
2023-07-25T01:35:08.695Z,75.50
2023-07-25T01:37:36.903Z,75.63
2023-07-25T01:40:05.381Z,75.67
2023-07-25T01:42:33.597Z,75.72
2023-07-25T01:45:01.790Z,75.81
2023-07-25T01:47:31.640Z,75.88
2023-07-25T01:49:59.848Z,76.00
2023-07-25T01:52:27.992Z,76.05
2023-07-25T01:54:56.130Z,76.14
2023-07-25T01:57:24.308Z,76.23
2023-07-25T01:59:53.058Z,76.34
2023-07-25T02:02:21.351Z,76.30
2023-07-25T02:04:49.631Z,76.36
2023-07-25T02:07:17.703Z,76.48
2023-07-25T02:09:45.832Z,76.51
2023-07-25T02:12:13.913Z,76.53
2023-07-25T02:14:42.000Z,76.61
2023-07-25T02:17:10.291Z,76.68
2023-07-25T02:19:39.461Z,76.69
2023-07-25T02:22:07.787Z,76.66
2023-07-25T02:24:36.931Z,76.61
2023-07-25T02:27:05.371Z,76.65
2023-07-25T02:29:33.808Z,76.59
2023-07-25T02:32:01.873Z,76.50
2023-07-25T02:34:29.981Z,76.38
2023-07-25T02:36:58.197Z,76.32
2023-07-25T02:39:26.268Z,76.25
2023-07-25T02:41:54.445Z,76.23
2023-07-25T02:44:22.592Z,76.21
2023-07-25T02:46:50.813Z,76.22
2023-07-25T02:49:18.961Z,76.17
2023-07-25T02:51:47.104Z,76.02
2023-07-25T02:54:15.193Z,75.88
2023-07-25T02:56:43.281Z,75.85
2023-07-25T02:59:11.391Z,75.74
2023-07-25T03:01:39.645Z,75.67
2023-07-25T03:04:07.870Z,75.52
2023-07-25T03:06:35.968Z,75.38
2023-07-25T03:09:04.692Z,75.15
2023-07-25T03:11:33.042Z,74.91
2023-07-25T03:14:01.600Z,74.87
2023-07-25T03:16:30.330Z,74.77
2023-07-25T03:18:58.509Z,74.74
2023-07-25T03:21:26.721Z,74.70
2023-07-25T03:23:54.930Z,74.64
2023-07-25T03:26:23.396Z,74.65
2023-07-25T03:28:51.549Z,74.60
2023-07-25T03:31:19.688Z,74.54
2023-07-25T03:33:47.977Z,74.57
2023-07-25T03:36:16.066Z,74.58
2023-07-25T03:38:44.247Z,74.63
2023-07-25T03:41:12.427Z,74.61
2023-07-25T03:43:40.479Z,74.61
2023-07-25T03:46:08.901Z,74.56
2023-07-25T03:48:37.092Z,74.55
2023-07-25T03:51:05.220Z,74.53
2023-07-25T03:53:33.460Z,74.61
2023-07-25T03:56:01.830Z,74.60
2023-07-25T03:58:30.025Z,74.67
2023-07-25T04:00:58.146Z,74.75
2023-07-25T04:03:27.700Z,74.80
2023-07-25T04:05:56.346Z,74.81
2023-07-25T04:08:24.634Z,74.85
2023-07-25T04:10:52.744Z,74.90
2023-07-25T04:13:20.805Z,74.95
2023-07-25T04:15:49.165Z,75.00
2023-07-25T04:18:17.636Z,75.03
2023-07-25T04:20:45.785Z,75.13
2023-07-25T04:23:13.912Z,75.17
2023-07-25T04:25:41.997Z,75.05
2023-07-25T04:28:10.990Z,75.09
2023-07-25T04:30:39.195Z,75.14
2023-07-25T04:33:07.911Z,74.99
2023-07-25T04:35:36.316Z,74.95
2023-07-25T04:38:04.426Z,74.95
2023-07-25T04:40:32.782Z,74.93
2023-07-25T04:43:00.909Z,74.67
2023-07-25T04:45:29.100Z,74.59
2023-07-25T04:47:57.295Z,74.38
2023-07-25T04:50:25.420Z,74.25
2023-07-25T04:52:54.355Z,74.27
2023-07-25T04:55:22.457Z,74.27
2023-07-25T04:57:51.730Z,74.14
2023-07-25T05:00:19.970Z,74.04
2023-07-25T05:02:48.209Z,74.09
2023-07-25T05:05:16.517Z,74.09
2023-07-25T05:07:44.629Z,74.05
2023-07-25T05:10:12.770Z,74.01
2023-07-25T05:12:40.903Z,73.95
2023-07-25T05:15:09.266Z,73.84
2023-07-25T05:17:37.498Z,73.56
2023-07-25T05:20:06.638Z,73.55
2023-07-25T05:22:38.049Z,73.48
2023-07-25T05:25:06.567Z,73.50
2023-07-25T05:27:34.932Z,73.50
2023-07-25T05:30:04.110Z,73.43
2023-07-25T05:32:32.982Z,73.51
2023-07-25T05:35:05.947Z,73.41
2023-07-25T05:37:39.305Z,73.40
2023-07-25T05:40:08.040Z,73.37
2023-07-25T05:42:36.489Z,73.29
2023-07-25T05:45:07.892Z,73.19
2023-07-25T05:47:36.059Z,72.94
2023-07-25T05:50:04.579Z,72.78
2023-07-25T05:52:32.846Z,72.57
2023-07-25T05:55:00.921Z,72.59
2023-07-25T05:57:29.206Z,72.50
2023-07-25T05:59:57.319Z,72.45
2023-07-25T06:02:25.562Z,72.56
2023-07-25T06:04:53.756Z,72.51
2023-07-25T06:07:23.838Z,72.50
2023-07-25T06:09:52.340Z,72.39
2023-07-25T06:12:21.025Z,72.27
2023-07-25T06:14:49.441Z,72.23
2023-07-25T06:17:20.656Z,72.21
2023-07-25T06:19:49.380Z,71.99
2023-07-25T06:22:17.823Z,71.92
2023-07-25T06:24:47.670Z,71.95
2023-07-25T06:27:16.191Z,71.89
2023-07-25T06:29:44.708Z,71.67
2023-07-25T06:32:13.061Z,71.48
2023-07-25T06:34:41.888Z,71.32
2023-07-25T06:37:13.043Z,71.29
2023-07-25T06:39:41.179Z,71.13
2023-07-25T06:42:09.309Z,70.89
2023-07-25T06:44:38.101Z,70.64
2023-07-25T06:47:06.686Z,70.47
2023-07-25T06:49:34.748Z,70.29
2023-07-25T06:52:02.942Z,70.25
2023-07-25T06:54:31.255Z,70.20
2023-07-25T06:56:59.662Z,70.18
2023-07-25T06:59:30.974Z,70.10
2023-07-25T07:01:59.249Z,69.57
2023-07-25T07:04:27.443Z,69.03
2023-07-25T07:06:55.690Z,68.97
2023-07-25T07:09:23.800Z,69.09
2023-07-25T07:11:51.944Z,69.17
2023-07-25T07:14:20.061Z,69.17
2023-07-25T07:16:48.309Z,68.95
2023-07-25T07:19:16.647Z,68.99
2023-07-25T07:21:44.736Z,68.69
2023-07-25T07:24:13.223Z,68.82
2023-07-25T07:26:41.413Z,68.57
2023-07-25T07:29:12.183Z,68.63
2023-07-25T07:31:40.461Z,68.37
2023-07-25T07:34:17.560Z,68.21
2023-07-25T07:36:46.363Z,68.03
2023-07-25T07:39:14.849Z,68.04
2023-07-25T07:41:43.039Z,68.15
2023-07-25T07:44:11.110Z,68.04
2023-07-25T07:46:39.283Z,67.76
2023-07-25T07:49:07.465Z,67.56
2023-07-25T07:51:35.570Z,67.26
2023-07-25T07:54:03.723Z,67.14
2023-07-25T07:56:31.992Z,66.60
2023-07-25T07:59:00.128Z,66.62
2023-07-25T08:01:28.988Z,66.61
2023-07-25T08:03:57.326Z,66.62
2023-07-25T08:06:25.627Z,66.77
2023-07-25T08:08:53.740Z,66.74
2023-07-25T08:11:21.851Z,66.42
2023-07-25T08:13:50.066Z,65.95
2023-07-25T08:16:18.185Z,65.53
2023-07-25T08:18:46.305Z,65.76
2023-07-25T08:21:14.481Z,65.89
2023-07-25T08:23:42.600Z,66.03
2023-07-25T08:26:10.914Z,65.78
2023-07-25T08:28:39.092Z,65.21
2023-07-25T08:31:07.763Z,65.22
2023-07-25T08:33:36.095Z,65.19
2023-07-25T08:36:07.318Z,64.98
2023-07-25T08:38:35.617Z,64.74
2023-07-25T08:41:12.168Z,64.64
2023-07-25T08:43:41.701Z,64.23
2023-07-25T08:46:11.377Z,64.01
2023-07-25T08:48:43.090Z,63.91
2023-07-25T08:51:24.034Z,63.42
2023-07-25T08:54:29.317Z,63.01
2023-07-25T08:56:57.666Z,62.33
2023-07-25T08:59:26.856Z,62.29
2023-07-25T09:01:55.950Z,62.00
2023-07-25T09:04:26.765Z,61.76
2023-07-25T09:06:55.201Z,61.59
2023-07-25T09:09:24.836Z,61.73
2023-07-25T09:11:54.457Z,61.84
2023-07-25T09:14:22.588Z,61.41
2023-07-25T09:16:50.794Z,61.41
2023-07-25T09:19:19.097Z,61.01
2023-07-25T09:21:59.111Z,60.91
2023-07-25T09:24:37.981Z,61.06
2023-07-25T09:27:17.833Z,61.14
2023-07-25T09:29:47.964Z,60.55
2023-07-25T09:32:27.288Z,60.20
2023-07-25T09:35:03.546Z,60.27
2023-07-25T09:37:31.815Z,60.00
2023-07-25T09:40:00.070Z,59.94
2023-07-25T09:42:28.388Z,59.03
2023-07-25T09:44:57.455Z,58.86
2023-07-25T09:47:27.820Z,58.98
2023-07-25T09:49:57.507Z,59.67
2023-07-25T09:52:26.814Z,60.69
2023-07-25T09:54:55.120Z,60.45
2023-07-25T09:57:23.429Z,60.79
2023-07-25T09:59:52.549Z,60.78
2023-07-25T10:02:21.077Z,60.55
2023-07-25T10:04:50.479Z,60.35
2023-07-25T10:07:19.201Z,60.41
2023-07-25T10:09:48.775Z,60.67
2023-07-25T10:12:16.927Z,60.94
2023-07-25T10:14:45.770Z,61.26
2023-07-25T10:17:14.352Z,61.42
2023-07-25T10:19:47.873Z,61.30
2023-07-25T10:22:16.240Z,61.47
2023-07-25T10:24:44.936Z,61.83
2023-07-25T10:27:14.027Z,62.55
2023-07-25T10:29:43.477Z,62.89
2023-07-25T10:32:16.356Z,62.96
2023-07-25T10:34:46.324Z,62.70
2023-07-25T10:37:20.756Z,62.45
2023-07-25T10:40:14.219Z,61.90
2023-07-25T10:45:28.526Z,61.09
2023-07-25T10:47:59.751Z,59.50
2023-07-25T10:50:49.116Z,58.56
2023-07-25T10:53:22.827Z,58.61
2023-07-25T10:56:09.292Z,58.81
2023-07-25T10:58:58.085Z,58.80
2023-07-25T11:01:34.199Z,59.15
2023-07-25T11:04:41.441Z,59.46
2023-07-25T11:07:12.378Z,59.57
2023-07-25T11:09:43.252Z,59.94
2023-07-25T11:12:12.761Z,60.24
2023-07-25T11:14:43.517Z,60.25
2023-07-25T11:17:14.996Z,60.37
2023-07-25T11:19:43.168Z,60.33
2023-07-25T11:22:12.960Z,60.46
2023-07-25T11:24:46.048Z,60.20
2023-07-25T11:27:15.822Z,60.15
2023-07-25T11:29:44.212Z,60.62
2023-07-25T11:32:12.438Z,60.29
2023-07-25T11:34:41.235Z,60.61
2023-07-25T11:37:13.157Z,59.95
2023-07-25T11:39:41.308Z,60.65
2023-07-25T11:42:09.858Z,60.65
2023-07-25T11:44:38.621Z,60.71
2023-07-25T11:47:07.068Z,60.42
2023-07-25T11:49:49.285Z,60.06
2023-07-25T11:52:20.916Z,60.33
2023-07-25T11:54:49.408Z,60.46
2023-07-25T11:57:17.610Z,60.26
2023-07-25T11:59:45.875Z,60.41
2023-07-25T12:02:14.087Z,60.31
2023-07-25T12:04:45.044Z,60.22
2023-07-25T12:07:14.846Z,60.49
2023-07-25T12:09:53.365Z,60.97
2023-07-25T12:12:22.373Z,60.89
2023-07-25T12:14:59.090Z,61.27
2023-07-25T12:17:46.117Z,61.67
2023-07-25T12:20:21.342Z,61.85
2023-07-25T12:22:49.670Z,62.53
2023-07-25T12:25:19.335Z,62.96
2023-07-25T12:27:49.955Z,62.83
2023-07-25T12:30:18.143Z,62.40
2023-07-25T12:32:46.328Z,61.60
2023-07-25T12:35:14.592Z,61.60
2023-07-25T12:37:42.878Z,61.58
2023-07-25T12:40:11.534Z,61.73
2023-07-25T12:42:39.789Z,62.05
2023-07-25T12:45:11.029Z,62.19
2023-07-25T12:47:40.053Z,62.29
2023-07-25T12:50:10.028Z,62.31
2023-07-25T12:52:38.445Z,62.28
2023-07-25T12:55:07.346Z,62.22
2023-07-25T12:57:35.769Z,62.27
2023-07-25T13:00:08.502Z,62.39
2023-07-25T13:02:38.280Z,62.13
2023-07-25T13:05:08.171Z,61.95
2023-07-25T13:07:36.709Z,61.99
2023-07-25T13:10:08.163Z,62.06
2023-07-25T13:12:36.420Z,61.80
2023-07-25T13:15:05.932Z,61.61
2023-07-25T13:17:35.199Z,61.60
2023-07-25T13:20:08.437Z,61.51
2023-07-25T13:22:37.418Z,61.55
2023-07-25T13:25:06.333Z,61.46
2023-07-25T13:27:34.546Z,61.45
2023-07-25T13:30:02.769Z,61.68
2023-07-25T13:32:32.021Z,61.85
2023-07-25T13:35:00.425Z,61.84
2023-07-25T13:37:28.659Z,61.90
2023-07-25T13:39:56.769Z,61.90
2023-07-25T13:42:25.571Z,61.20
2023-07-25T13:44:53.751Z,60.48
2023-07-25T13:47:22.184Z,59.50
2023-07-25T13:49:51.094Z,58.43
2023-07-25T13:52:19.168Z,58.57
2023-07-25T13:54:47.360Z,59.17
2023-07-25T13:57:15.525Z,59.66
2023-07-25T13:59:43.660Z,59.98
2023-07-25T14:02:11.858Z,60.43
2023-07-25T14:04:40.912Z,60.37
2023-07-25T14:07:09.476Z,60.44
2023-07-25T14:09:37.629Z,60.68
2023-07-25T14:12:06.737Z,60.28
2023-07-25T14:14:35.991Z,60.48
2023-07-25T14:17:04.737Z,60.08
2023-07-25T14:19:32.896Z,59.79
2023-07-25T14:22:01.668Z,59.41
2023-07-25T14:24:31.136Z,59.06
2023-07-25T14:26:59.326Z,58.64
2023-07-25T14:29:27.466Z,58.32
2023-07-25T14:31:55.833Z,58.00
2023-07-25T14:34:25.187Z,58.54
2023-07-25T14:36:53.352Z,58.79
2023-07-25T14:39:21.405Z,58.58
2023-07-25T14:41:49.497Z,58.00
2023-07-25T14:44:17.594Z,58.41
2023-07-25T14:46:45.801Z,57.81
2023-07-25T14:49:13.958Z,57.29
2023-07-25T14:51:42.116Z,57.23
2023-07-25T14:54:10.229Z,56.82
2023-07-25T14:56:38.620Z,56.98
2023-07-25T14:59:07.158Z,57.22
2023-07-25T15:01:35.341Z,57.52
2023-07-25T15:04:03.599Z,57.44
2023-07-25T15:06:32.166Z,57.79
2023-07-25T15:09:01.584Z,58.21
2023-07-25T15:11:30.076Z,58.48
2023-07-25T15:13:58.219Z,58.61
2023-07-25T15:16:26.381Z,58.85
2023-07-25T15:18:54.819Z,58.91
2023-07-25T15:21:22.949Z,58.96
2023-07-25T15:23:51.072Z,59.29
2023-07-25T15:26:19.153Z,59.36
2023-07-25T15:28:47.225Z,58.43
2023-07-25T15:31:15.541Z,57.80
2023-07-25T15:33:43.680Z,57.64
2023-07-25T15:36:11.828Z,57.56
2023-07-25T15:38:39.941Z,57.54
2023-07-25T15:41:08.043Z,57.48
2023-07-25T15:43:36.117Z,57.30
2023-07-25T15:46:04.269Z,57.51
2023-07-25T15:48:32.594Z,57.48
2023-07-25T15:51:00.808Z,57.29
2023-07-25T15:53:28.990Z,57.24
2023-07-25T15:55:57.342Z,57.33
2023-07-25T15:58:25.506Z,57.41
2023-07-25T16:00:53.698Z,57.34
2023-07-25T16:03:22.034Z,57.26
2023-07-25T16:05:50.450Z,57.17
2023-07-25T16:08:18.863Z,57.43
2023-07-25T16:10:47.079Z,57.71
2023-07-25T16:13:15.788Z,57.74
2023-07-25T16:15:47.460Z,58.03
2023-07-25T16:18:15.757Z,57.95
2023-07-25T16:20:44.337Z,57.86
2023-07-25T16:23:12.528Z,57.78
2023-07-25T16:25:40.633Z,57.56
2023-07-25T16:28:08.858Z,57.36
2023-07-25T16:30:37.710Z,56.80
2023-07-25T16:33:05.906Z,56.24
2023-07-25T16:35:34.018Z,56.07
2023-07-25T16:38:03.382Z,55.92
2023-07-25T16:40:31.837Z,55.27
2023-07-25T16:43:00.062Z,54.99
2023-07-25T16:45:28.167Z,54.57
2023-07-25T16:47:56.936Z,54.33
2023-07-25T16:50:25.400Z,54.03
2023-07-25T16:52:53.669Z,53.58
2023-07-25T16:55:21.929Z,53.49
2023-07-25T16:57:50.100Z,52.94
2023-07-25T17:00:18.588Z,52.71
2023-07-25T17:02:46.730Z,52.32
2023-07-25T17:05:14.945Z,51.91
2023-07-25T17:07:43.336Z,51.77
2023-07-25T17:10:11.504Z,51.44
2023-07-25T17:12:39.580Z,50.99
2023-07-25T17:15:08.269Z,50.92
2023-07-25T17:17:36.423Z,50.79
2023-07-25T17:20:05.579Z,50.50
2023-07-25T17:22:33.825Z,50.68
2023-07-25T17:25:01.980Z,50.35
2023-07-25T17:27:30.204Z,50.29
2023-07-25T17:29:58.420Z,50.10
2023-07-25T17:32:27.261Z,49.66
2023-07-25T17:34:55.560Z,49.39
2023-07-25T17:37:23.697Z,49.32
2023-07-25T17:39:51.854Z,48.97
2023-07-25T17:42:20.056Z,48.44
2023-07-25T17:44:48.205Z,48.52
2023-07-25T17:47:16.388Z,48.10
2023-07-25T17:49:44.547Z,48.03
2023-07-25T17:52:12.746Z,48.09
2023-07-25T17:54:40.943Z,47.87
2023-07-25T17:57:09.071Z,47.97
2023-07-25T17:59:37.245Z,48.18
2023-07-25T18:02:05.650Z,48.35
2023-07-25T18:04:34.361Z,48.52
2023-07-25T18:07:02.465Z,48.78
2023-07-25T18:09:30.688Z,48.84
2023-07-25T18:11:58.882Z,49.03
2023-07-25T18:14:27.115Z,49.21
2023-07-25T18:16:55.244Z,49.35
2023-07-25T18:19:23.382Z,49.54
2023-07-25T18:21:52.095Z,49.69
2023-07-25T18:24:20.389Z,49.85
2023-07-25T18:26:49.696Z,49.93
2023-07-25T18:29:17.914Z,50.02
2023-07-25T18:31:46.093Z,50.17
2023-07-25T18:34:14.697Z,50.19
2023-07-25T18:36:42.831Z,50.34
2023-07-25T18:39:14.962Z,50.49
2023-07-25T18:41:43.165Z,50.59
2023-07-25T18:44:11.278Z,50.83
2023-07-25T18:46:39.436Z,51.08
2023-07-25T18:49:07.713Z,51.32
2023-07-25T18:51:35.900Z,51.48
2023-07-25T18:54:04.185Z,51.74
2023-07-25T18:56:33.386Z,51.96
2023-07-25T18:59:02.715Z,52.27
2023-07-25T19:01:34.196Z,52.55
2023-07-25T19:04:02.629Z,52.86
2023-07-25T19:06:31.268Z,53.14
2023-07-25T19:08:59.907Z,53.36
2023-07-25T19:11:28.172Z,53.63
2023-07-25T19:13:56.484Z,53.90
2023-07-25T19:16:24.725Z,54.19
2023-07-25T19:18:52.926Z,54.45
2023-07-25T19:21:21.006Z,54.73
2023-07-25T19:23:49.144Z,55.00
2023-07-25T19:26:17.336Z,55.30
2023-07-25T19:28:45.612Z,55.54
2023-07-25T19:31:13.757Z,55.79
2023-07-25T19:33:41.973Z,56.08
2023-07-25T19:36:10.136Z,56.35
2023-07-25T19:38:38.347Z,56.66
2023-07-25T19:41:15.400Z,56.90
2023-07-25T19:43:43.765Z,57.23
2023-07-25T19:46:11.902Z,57.56
2023-07-25T19:48:40.136Z,57.82
2023-07-25T19:51:10.525Z,58.09
2023-07-25T19:53:39.354Z,58.37
2023-07-25T19:56:12.445Z,58.63
2023-07-25T19:58:44.818Z,58.90
2023-07-25T20:01:14.226Z,59.26
2023-07-25T20:03:42.692Z,59.55
2023-07-25T20:06:11.041Z,59.87
2023-07-25T20:08:39.252Z,60.13
2023-07-25T20:11:08.641Z,60.47
2023-07-25T20:13:36.984Z,60.67
2023-07-25T20:16:05.459Z,60.92
2023-07-25T20:18:33.844Z,61.13
2023-07-25T20:21:09.885Z,61.32
2023-07-25T20:23:39.527Z,61.43
2023-07-25T20:26:07.909Z,61.61
2023-07-25T20:28:36.042Z,61.70
2023-07-25T20:37:36.008Z,61.86
2023-07-25T20:40:06.460Z,61.89
2023-07-25T20:42:36.043Z,61.87
2023-07-25T20:45:04.419Z,61.95
2023-07-25T20:47:34.576Z,62.00
2023-07-25T20:50:05.356Z,62.08
2023-07-25T20:52:33.492Z,62.43
2023-07-25T20:55:01.936Z,62.92
2023-07-25T20:57:31.213Z,62.87
2023-07-25T20:59:59.355Z,62.60
2023-07-25T21:02:27.764Z,62.25
2023-07-25T21:04:55.915Z,61.97
2023-07-25T21:07:24.030Z,61.79
2023-07-25T21:09:52.233Z,61.57
2023-07-25T21:12:20.403Z,61.32
2023-07-25T21:14:48.513Z,61.13
2023-07-25T21:17:16.726Z,60.94
2023-07-25T21:19:44.834Z,60.77
2023-07-25T21:22:13.087Z,60.58
2023-07-25T21:24:41.804Z,60.36
2023-07-25T21:27:09.905Z,60.22
2023-07-25T21:29:38.040Z,60.08
2023-07-25T21:32:06.369Z,59.98
2023-07-25T21:34:34.535Z,59.48
2023-07-25T21:37:02.793Z,59.04
2023-07-25T21:39:30.927Z,59.13
2023-07-25T21:41:59.099Z,59.54
2023-07-25T21:44:27.294Z,59.94
2023-07-25T21:46:55.512Z,60.25
2023-07-25T21:49:24.147Z,60.53
2023-07-25T21:51:52.381Z,60.83
2023-07-25T21:54:20.575Z,61.08
2023-07-25T21:56:51.017Z,61.41
2023-07-25T21:59:19.552Z,61.66
2023-07-25T22:01:47.755Z,62.27
2023-07-25T22:04:15.947Z,62.72
2023-07-25T22:06:44.052Z,62.80
2023-07-25T22:09:12.225Z,62.69
2023-07-25T22:11:40.425Z,62.43
2023-07-25T22:14:08.726Z,62.23
2023-07-25T22:16:37.125Z,61.99
2023-07-25T22:19:05.490Z,61.77
2023-07-25T22:21:33.589Z,61.59
2023-07-25T22:24:01.797Z,61.46
2023-07-25T22:26:30.288Z,61.33
2023-07-25T22:28:58.685Z,61.23
2023-07-25T22:31:26.925Z,61.18
2023-07-25T22:33:55.094Z,61.15
2023-07-25T22:36:23.156Z,61.14
2023-07-25T22:38:51.400Z,61.22
2023-07-25T22:41:19.832Z,61.20
2023-07-25T22:43:47.927Z,61.25
2023-07-25T22:46:16.082Z,61.26
2023-07-25T22:48:44.317Z,61.45
2023-07-25T22:51:12.478Z,61.60
2023-07-25T22:53:40.604Z,61.71
2023-07-25T22:56:08.694Z,61.86
2023-07-25T22:58:36.842Z,61.94
2023-07-25T23:01:05.076Z,62.01
2023-07-25T23:03:36.256Z,62.05
2023-07-25T23:06:04.483Z,62.25
2023-07-25T23:08:32.544Z,62.38
2023-07-25T23:11:00.677Z,62.45
2023-07-25T23:13:28.950Z,62.64
2023-07-25T23:15:57.150Z,62.83
2023-07-25T23:18:25.288Z,62.92
2023-07-25T23:20:53.458Z,62.91
2023-07-25T23:23:21.594Z,63.08
2023-07-25T23:25:49.710Z,63.07
2023-07-25T23:28:17.915Z,63.29
2023-07-25T23:30:46.101Z,63.47
2023-07-25T23:33:14.318Z,63.53
2023-07-25T23:35:42.490Z,63.68
2023-07-25T23:38:10.669Z,63.86
2023-07-25T23:40:39.023Z,63.94
2023-07-25T23:43:07.215Z,64.02
2023-07-25T23:45:35.296Z,64.06
2023-07-25T23:48:03.684Z,64.04
2023-07-25T23:50:31.972Z,64.06
2023-07-25T23:53:00.096Z,64.16
2023-07-25T23:55:28.382Z,64.21
2023-07-25T23:57:56.544Z,64.24
